Time;durP1;ratioP1;P1;durP2;ratioP2;P2;SDS_P1;SDS_P2;PMS_P1;PMS_P2;Temp;Humidity;BMP_temperature;BMP_pressure;BME280_temperature;BME280_humidity;BME280_pressure;Samples;Min_cycle;Max_cycle;Signal;HPM_P1;HPM_P2
2022/03/16 00:00:01;;;;;;;21.05;13.93;;;19.60;58.30;;;;;;4434070;32;20070;-75
2022/03/16 00:02:27;;;;;;;20.65;13.80;;;19.60;58.30;;;;;;4447423;32;20085;-75
2022/03/16 00:04:54;;;;;;;21.33;13.68;;;19.60;58.30;;;;;;4447733;32;20058;-75
2022/03/16 00:07:20;;;;;;;22.63;13.38;;;19.60;58.20;;;;;;4433774;32;20090;-75
2022/03/16 00:09:47;;;;;;;23.92;13.63;;;19.50;58.10;;;;;;4447820;32;20085;-75
2022/03/16 00:12:14;;;;;;;21.77;13.43;;;19.50;58.10;;;;;;4447531;32;20164;-75
2022/03/16 00:14:40;;;;;;;22.75;12.90;;;19.50;58.10;;;;;;4447477;32;20086;-75
2022/03/16 00:17:07;;;;;;;23.65;13.90;;;19.50;58.10;;;;;;4447283;32;20090;-75
2022/03/16 00:19:35;;;;;;;22.33;12.82;;;19.50;58.10;;;;;;4433606;32;20069;-75
2022/03/16 00:22:03;;;;;;;19.85;12.50;;;19.50;58.10;;;;;;4447434;32;20618;-75
2022/03/16 00:24:29;;;;;;;19.35;13.07;;;19.50;58.10;;;;;;4447385;32;20295;-75
2022/03/16 00:26:55;;;;;;;20.30;12.68;;;19.40;58.00;;;;;;4433143;32;20073;-75
2022/03/16 00:29:21;;;;;;;25.15;13.13;;;19.40;58.00;;;;;;4447325;32;20085;-75
2022/03/16 00:31:48;;;;;;;18.95;12.77;;;19.40;57.90;;;;;;4447500;32;20221;-75
2022/03/16 00:34:13;;;;;;;20.98;12.55;;;19.40;57.90;;;;;;4446970;32;20097;-75
2022/03/16 00:36:39;;;;;;;20.38;12.05;;;19.40;57.90;;;;;;4433043;32;20089;-75
2022/03/16 00:39:05;;;;;;;21.65;12.38;;;19.40;57.90;;;;;;4446528;32;20074;-75
2022/03/16 00:41:33;;;;;;;18.83;11.82;;;19.40;57.90;;;;;;4446648;32;20078;-75
2022/03/16 00:44:00;;;;;;;20.15;12.25;;;19.40;57.90;;;;;;4432996;32;20423;-75
2022/03/16 00:46:26;;;;;;;18.58;11.93;;;19.40;57.80;;;;;;4447094;32;20400;-75
2022/03/16 00:48:52;;;;;;;19.05;12.55;;;19.40;57.90;;;;;;4432858;32;20152;-75
2022/03/16 00:51:18;;;;;;;22.15;12.63;;;19.40;57.80;;;;;;4447387;32;20074;-75
2022/03/16 00:53:45;;;;;;;17.50;12.18;;;19.30;57.80;;;;;;4446857;32;20076;-75
2022/03/16 00:56:12;;;;;;;18.80;12.15;;;19.30;57.80;;;;;;4446914;32;20074;-75
2022/03/16 00:58:38;;;;;;;18.23;11.35;;;19.30;57.70;;;;;;4446876;32;20070;-75
2022/03/16 01:01:07;;;;;;;20.23;11.98;;;19.30;57.70;;;;;;4446909;32;20074;-75
2022/03/16 01:03:35;;;;;;;17.77;11.27;;;19.30;57.70;;;;;;4446647;32;20092;-75
2022/03/16 01:06:02;;;;;;;18.48;11.27;;;19.30;57.70;;;;;;4447037;32;20097;-75
2022/03/16 01:08:28;;;;;;;17.70;11.52;;;19.30;57.70;;;;;;4446877;32;20208;-75
2022/03/16 01:10:54;;;;;;;20.48;11.98;;;19.30;57.70;;;;;;4446623;32;20089;-75
2022/03/16 01:13:20;;;;;;;17.33;11.50;;;19.20;57.60;;;;;;4446678;32;20082;-75
2022/03/16 01:15:46;;;;;;;15.77;10.68;;;19.30;57.60;;;;;;4446492;32;20063;-75
2022/03/16 01:18:12;;;;;;;19.95;12.02;;;19.20;57.50;;;;;;4446500;32;20078;-75
2022/03/16 01:20:39;;;;;;;17.00;11.68;;;19.20;57.50;;;;;;4446725;32;20236;-75
2022/03/16 01:23:04;;;;;;;15.07;11.35;;;19.20;57.50;;;;;;4446625;32;20152;-75
2022/03/16 01:25:30;;;;;;;18.65;11.32;;;19.20;57.50;;;;;;4446404;32;20100;-74
2022/03/16 01:27:56;;;;;;;15.00;11.00;;;19.20;57.50;;;;;;4446619;32;20212;-75
2022/03/16 01:30:22;;;;;;;15.98;10.05;;;19.20;57.50;;;;;;4446342;32;20089;-75
2022/03/16 01:32:48;;;;;;;16.02;10.45;;;19.20;57.40;;;;;;4446292;32;20447;-75
2022/03/16 01:35:14;;;;;;;16.20;10.93;;;19.20;57.50;;;;;;4446260;32;20086;-75
2022/03/16 01:37:43;;;;;;;13.60;9.88;;;19.20;57.40;;;;;;4446159;32;20163;-75
2022/03/16 01:40:09;;;;;;;15.65;10.45;;;19.20;57.40;;;;;;4446390;32;20569;-75
2022/03/16 01:42:35;;;;;;;16.52;10.10;;;19.20;57.40;;;;;;4446493;32;20074;-75
2022/03/16 01:45:01;;;;;;;15.35;9.98;;;19.20;57.40;;;;;;4446189;32;20073;-75
2022/03/16 01:47:27;;;;;;;19.23;10.63;;;19.10;57.30;;;;;;4446225;32;20487;-74
2022/03/16 01:49:55;;;;;;;14.00;10.52;;;19.20;57.40;;;;;;4446257;32;20212;-75
2022/03/16 01:52:28;;;;;;;14.98;10.30;;;19.10;57.30;;;;;;4446088;32;20096;-75
2022/03/16 01:54:56;;;;;;;13.48;9.57;;;19.10;57.30;;;;;;4446608;32;20582;-75
2022/03/16 01:57:21;;;;;;;16.67;9.73;;;19.10;57.30;;;;;;4432298;32;20228;-75
2022/03/16 01:59:49;;;;;;;15.27;10.52;;;19.10;57.30;;;;;;4446208;32;20132;-75
2022/03/16 02:02:15;;;;;;;15.23;10.00;;;19.10;57.30;;;;;;4446077;32;20191;-75
2022/03/16 02:04:44;;;;;;;15.63;10.20;;;19.10;57.30;;;;;;4445668;32;20089;-75
2022/03/16 02:07:10;;;;;;;15.05;9.38;;;19.10;57.30;;;;;;4446147;32;20090;-75
2022/03/16 02:09:37;;;;;;;14.73;9.60;;;19.00;57.20;;;;;;4445768;32;20125;-75
2022/03/16 02:12:03;;;;;;;14.75;9.52;;;19.00;57.30;;;;;;4445761;32;20093;-75
2022/03/16 02:14:29;;;;;;;15.18;9.57;;;19.00;57.20;;;;;;4445776;32;20244;-75
2022/03/16 02:16:57;;;;;;;14.80;9.77;;;19.00;57.20;;;;;;4432000;32;20094;-75
2022/03/16 02:19:24;;;;;;;15.07;9.60;;;19.00;57.20;;;;;;4445753;32;20078;-75
2022/03/16 02:21:57;;;;;;;14.60;9.85;;;19.00;57.20;;;;;;4445936;32;20082;-74
2022/03/16 02:24:27;;;;;;;15.53;10.03;;;19.00;57.10;;;;;;4432421;32;20070;-75
2022/03/16 02:26:52;;;;;;;14.60;9.85;;;19.00;57.10;;;;;;4445594;32;20734;-75
2022/03/16 02:29:18;;;;;;;14.88;9.23;;;19.00;57.10;;;;;;4445652;32;20086;-75
2022/03/16 02:31:44;;;;;;;12.43;8.95;;;19.00;57.10;;;;;;4431755;32;20078;-74
2022/03/16 02:34:10;;;;;;;14.60;9.10;;;19.00;57.10;;;;;;4445810;32;20172;-74
2022/03/16 02:36:36;;;;;;;13.15;8.60;;;19.00;57.10;;;;;;4431797;32;20084;-75
2022/03/16 02:39:02;;;;;;;11.82;9.13;;;18.90;57.00;;;;;;4445800;32;20058;-75
2022/03/16 02:41:28;;;;;;;12.85;9.05;;;18.90;57.10;;;;;;4445437;32;20621;-74
2022/03/16 02:43:53;;;;;;;14.45;9.15;;;18.90;57.10;;;;;;4445134;32;20117;-74
2022/03/16 02:46:19;;;;;;;12.13;8.68;;;18.90;57.00;;;;;;4445325;32;20074;-74
2022/03/16 02:48:45;;;;;;;11.00;8.35;;;18.90;57.00;;;;;;4445092;32;20082;-74
2022/03/16 02:51:11;;;;;;;12.25;8.77;;;18.90;57.00;;;;;;4445432;32;20208;-74
2022/03/16 02:53:37;;;;;;;11.63;8.65;;;18.90;57.00;;;;;;4445207;32;20164;-75
2022/03/16 02:56:03;;;;;;;11.48;8.38;;;18.90;57.00;;;;;;4445345;32;20093;-74
2022/03/16 02:58:29;;;;;;;11.45;8.15;;;18.90;57.00;;;;;;4431119;32;20251;-74
2022/03/16 03:00:55;;;;;;;11.50;8.63;;;18.90;57.00;;;;;;4431390;32;20070;-75
2022/03/16 03:03:20;;;;;;;11.75;7.80;;;18.90;57.00;;;;;;4427903;32;20058;-74
2022/03/16 03:05:46;;;;;;;10.85;7.90;;;18.90;57.00;;;;;;4429784;32;20079;-75
2022/03/16 03:08:12;;;;;;;10.48;7.88;;;18.90;57.00;;;;;;4428769;32;20513;-75
2022/03/16 03:10:38;;;;;;;13.43;8.43;;;18.80;56.90;;;;;;4430062;32;20157;-74
2022/03/16 03:13:04;;;;;;;13.65;8.55;;;18.90;57.00;;;;;;4429471;32;20070;-74
2022/03/16 03:15:30;;;;;;;12.32;8.15;;;18.80;56.90;;;;;;4429715;32;20093;-74
2022/03/16 03:17:56;;;;;;;11.05;8.27;;;18.80;56.90;;;;;;4430017;32;20063;-74
2022/03/16 03:20:22;;;;;;;11.70;7.93;;;18.80;56.90;;;;;;4429595;32;20081;-76
2022/03/16 03:22:48;;;;;;;11.80;7.68;;;18.80;57.00;;;;;;4429553;32;20074;-76
2022/03/16 03:25:15;;;;;;;10.13;7.75;;;18.80;57.10;;;;;;4429775;32;20539;-75
2022/03/16 03:27:41;;;;;;;9.43;7.32;;;18.80;57.20;;;;;;4429290;32;20097;-75
2022/03/16 03:30:08;;;;;;;10.43;7.35;;;18.80;57.20;;;;;;4429625;32;20070;-76
2022/03/16 03:32:33;;;;;;;11.10;8.07;;;18.80;57.20;;;;;;4429373;32;20071;-76
2022/03/16 03:35:00;;;;;;;10.10;8.00;;;18.80;57.10;;;;;;4428232;32;20188;-76
2022/03/16 03:37:28;;;;;;;10.35;7.65;;;18.80;57.00;;;;;;4429516;32;20098;-75
2022/03/16 03:39:54;;;;;;;11.48;7.68;;;18.80;57.10;;;;;;4429467;32;20081;-75
2022/03/16 03:42:20;;;;;;;12.38;7.63;;;18.80;57.10;;;;;;4430009;32;20097;-75
2022/03/16 03:44:46;;;;;;;11.98;8.57;;;18.80;57.10;;;;;;4429435;32;20082;-75
2022/03/16 03:47:13;;;;;;;11.43;7.43;;;18.80;57.10;;;;;;4429219;32;20082;-75
2022/03/16 03:49:40;;;;;;;9.48;7.07;;;18.70;57.10;;;;;;4429851;32;20091;-75
2022/03/16 03:52:06;;;;;;;11.13;7.25;;;18.70;57.10;;;;;;4429443;32;20066;-74
2022/03/16 03:54:32;;;;;;;10.88;7.45;;;18.70;58.00;;;;;;4429375;32;20622;-75
2022/03/16 03:56:58;;;;;;;10.07;7.30;;;18.70;57.10;;;;;;4429276;32;20228;-74
2022/03/16 03:59:24;;;;;;;9.85;7.30;;;18.70;57.10;;;;;;4428417;32;20406;-75
2022/03/16 04:01:50;;;;;;;8.98;6.75;;;18.70;57.10;;;;;;4429655;32;20130;-75
2022/03/16 04:04:17;;;;;;;10.82;7.15;;;18.70;57.10;;;;;;4428164;32;20523;-75
2022/03/16 04:06:43;;;;;;;9.82;6.82;;;18.70;57.10;;;;;;4429651;32;20094;-74
2022/03/16 04:09:09;;;;;;;10.48;7.25;;;18.70;57.10;;;;;;4429314;32;20547;-75
2022/03/16 04:11:36;;;;;;;9.95;7.15;;;18.70;57.10;;;;;;4429487;32;20412;-75
2022/03/16 04:14:02;;;;;;;11.15;7.90;;;18.70;57.10;;;;;;4429024;32;20089;-74
2022/03/16 04:16:27;;;;;;;9.73;6.70;;;18.60;57.00;;;;;;4431457;32;20090;-73
2022/03/16 04:18:54;;;;;;;10.90;7.00;;;18.60;57.10;;;;;;4431882;32;20066;-74
2022/03/16 04:21:21;;;;;;;9.13;7.07;;;18.60;57.00;;;;;;4431775;32;20082;-74
2022/03/16 04:23:49;;;;;;;10.15;6.70;;;18.60;57.10;;;;;;4432275;32;20093;-74
2022/03/16 04:26:15;;;;;;;10.88;6.70;;;18.60;57.10;;;;;;4431692;32;20074;-74
2022/03/16 04:28:41;;;;;;;9.70;6.63;;;18.60;57.20;;;;;;4430740;32;20074;-73
2022/03/16 04:31:07;;;;;;;9.93;7.00;;;18.60;57.20;;;;;;4430772;32;20055;-74
2022/03/16 04:33:33;;;;;;;11.07;6.85;;;18.60;57.20;;;;;;4431375;32;20165;-74
2022/03/16 04:36:00;;;;;;;10.23;6.95;;;18.60;57.20;;;;;;4431874;32;20091;-73
2022/03/16 04:38:26;;;;;;;9.00;6.50;;;18.60;57.10;;;;;;4430204;32;20096;-73
2022/03/16 04:40:52;;;;;;;8.85;6.55;;;18.60;57.20;;;;;;4431565;32;20121;-74
2022/03/16 04:43:18;;;;;;;8.98;6.57;;;18.60;57.20;;;;;;4431690;32;20523;-73
2022/03/16 04:45:44;;;;;;;8.43;6.20;;;18.60;57.10;;;;;;4431749;32;20062;-74
2022/03/16 04:48:11;;;;;;;9.15;6.20;;;18.50;57.10;;;;;;4431378;32;20102;-74
2022/03/16 04:50:41;;;;;;;9.30;6.35;;;18.50;57.00;;;;;;4431870;32;20071;-74
2022/03/16 04:53:07;;;;;;;8.10;6.15;;;18.50;57.00;;;;;;4417533;32;20589;-74
2022/03/16 04:55:36;;;;;;;13.23;6.75;;;18.50;57.00;;;;;;4431095;32;20082;-74
2022/03/16 04:58:07;;;;;;;9.25;6.40;;;18.50;57.00;;;;;;4431247;32;20117;-74
2022/03/16 05:00:37;;;;;;;7.05;5.85;;;18.50;57.00;;;;;;4431233;32;20074;-73
2022/03/16 05:03:03;;;;;;;8.25;5.72;;;18.50;57.00;;;;;;4433674;32;20279;-74
2022/03/16 05:05:30;;;;;;;9.68;6.13;;;18.50;57.00;;;;;;4446446;32;20172;-73
2022/03/16 05:07:56;;;;;;;7.05;5.88;;;18.50;57.00;;;;;;4446498;32;20090;-73
2022/03/16 05:10:22;;;;;;;8.20;5.70;;;18.50;56.90;;;;;;4446712;32;20078;-73
2022/03/16 05:12:49;;;;;;;7.10;5.63;;;18.50;56.90;;;;;;4446660;32;20082;-74
2022/03/16 05:15:17;;;;;;;8.68;6.25;;;18.50;56.90;;;;;;4446717;32;20144;-73
2022/03/16 05:17:44;;;;;;;8.00;5.80;;;18.50;56.80;;;;;;4446614;32;20066;-73
2022/03/16 05:20:10;;;;;;;7.88;5.82;;;18.50;56.90;;;;;;4446352;32;20120;-73
2022/03/16 05:22:48;;;;;;;7.18;5.55;;;18.40;56.80;;;;;;4446106;32;20074;-74
2022/03/16 05:25:17;;;;;;;7.13;5.47;;;18.40;56.70;;;;;;4446493;32;20093;-73
2022/03/16 05:27:43;;;;;;;9.05;5.85;;;18.40;56.80;;;;;;4445963;32;20066;-74
2022/03/16 05:30:11;;;;;;;7.93;6.05;;;18.40;56.80;;;;;;4446260;32;20147;-73
2022/03/16 05:32:40;;;;;;;7.50;5.53;;;18.40;56.70;;;;;;4446190;32;20094;-74
2022/03/16 05:35:11;;;;;;;7.22;5.47;;;18.40;56.70;;;;;;4431910;32;20168;-74
2022/03/16 05:37:38;;;;;;;7.20;5.65;;;18.40;56.70;;;;;;4446485;32;20227;-74
2022/03/16 05:40:05;;;;;;;8.07;6.05;;;18.40;56.70;;;;;;4446123;32;20093;-74
2022/03/16 05:42:31;;;;;;;7.68;5.95;;;18.40;56.80;;;;;;4446034;32;20529;-73
2022/03/16 05:44:57;;;;;;;6.88;5.28;;;18.40;56.80;;;;;;4446213;32;20526;-74
2022/03/16 05:47:24;;;;;;;8.68;6.13;;;18.40;56.80;;;;;;4432119;32;20074;-73
2022/03/16 05:49:54;;;;;;;7.53;5.60;;;18.30;56.70;;;;;;4445931;32;20140;-74
2022/03/16 05:52:21;;;;;;;7.80;5.75;;;18.40;56.70;;;;;;4445543;32;20114;-73
2022/03/16 05:54:52;;;;;;;7.32;5.38;;;18.30;56.70;;;;;;4446112;32;20088;-74
2022/03/16 05:57:18;;;;;;;6.85;5.35;;;18.30;56.70;;;;;;4446167;32;20084;-73
2022/03/16 05:59:44;;;;;;;6.50;5.05;;;18.30;56.70;;;;;;4445846;32;20070;-73
2022/03/16 06:02:11;;;;;;;7.43;5.60;;;18.30;56.70;;;;;;4445959;32;20105;-73
2022/03/16 06:04:38;;;;;;;7.25;5.53;;;18.30;56.70;;;;;;4445650;32;20097;-74
2022/03/16 06:07:05;;;;;;;7.43;5.25;;;18.30;56.70;;;;;;4445714;32;20074;-74
2022/03/16 06:09:30;;;;;;;6.38;4.88;;;18.30;56.70;;;;;;4445607;32;20232;-73
2022/03/16 06:11:57;;;;;;;6.95;5.20;;;18.30;56.70;;;;;;4445618;32;20156;-74
2022/03/16 06:14:24;;;;;;;6.72;4.70;;;18.30;56.70;;;;;;4431504;32;20133;-74
2022/03/16 06:16:50;;;;;;;6.65;5.03;;;18.30;56.70;;;;;;4445547;32;20105;-73
2022/03/16 06:19:16;;;;;;;6.32;4.97;;;18.20;56.60;;;;;;4445563;32;20082;-73
2022/03/16 06:21:42;;;;;;;7.07;4.95;;;18.30;56.70;;;;;;4445458;32;20062;-73
2022/03/16 06:24:07;;;;;;;6.97;4.95;;;18.20;56.60;;;;;;4445405;32;20082;-74
2022/03/16 06:26:34;;;;;;;6.53;4.70;;;18.20;56.60;;;;;;4445825;32;20109;-74
2022/03/16 06:29:00;;;;;;;6.93;5.22;;;18.20;56.60;;;;;;4445437;32;20118;-74
2022/03/16 06:31:26;;;;;;;6.28;5.03;;;18.30;56.70;;;;;;4445155;32;20235;-73
2022/03/16 06:33:52;;;;;;;7.88;5.30;;;18.20;56.60;;;;;;4431393;32;20082;-74
2022/03/16 06:36:18;;;;;;;6.22;4.85;;;18.20;56.60;;;;;;4431495;32;20090;-73
2022/03/16 06:38:43;;;;;;;6.82;5.05;;;18.20;56.60;;;;;;4444939;32;20066;-73
2022/03/16 06:41:09;;;;;;;6.20;4.82;;;18.20;56.60;;;;;;4445293;32;20120;-73
2022/03/16 06:43:35;;;;;;;8.70;5.18;;;18.20;56.60;;;;;;4445161;32;20082;-73
2022/03/16 06:46:01;;;;;;;6.28;4.72;;;18.20;56.60;;;;;;4445457;32;20073;-73
2022/03/16 06:48:27;;;;;;;7.10;5.20;;;18.20;56.60;;;;;;4431322;32;20125;-74
2022/03/16 06:50:53;;;;;;;5.93;4.80;;;18.20;56.60;;;;;;4445492;32;20145;-74
2022/03/16 06:53:19;;;;;;;8.57;4.80;;;18.10;56.60;;;;;;4445111;32;20220;-73
2022/03/16 06:55:44;;;;;;;5.70;4.68;;;18.10;56.60;;;;;;4445178;32;20140;-74
2022/03/16 06:58:10;;;;;;;5.32;4.55;;;18.10;57.10;;;;;;4431300;32;20473;-74
2022/03/16 07:00:36;;;;;;;5.68;4.63;;;18.10;56.60;;;;;;4431406;32;20208;-73
2022/03/16 07:03:05;;;;;;;6.80;4.80;;;18.10;56.60;;;;;;4445075;32;20070;-74
2022/03/16 07:05:36;;;;;;;5.13;4.20;;;18.10;56.60;;;;;;4444794;32;20093;-74
2022/03/16 07:08:04;;;;;;;5.78;4.80;;;18.10;56.60;;;;;;4445126;32;20092;-73
2022/03/16 07:10:33;;;;;;;6.05;4.47;;;18.10;56.60;;;;;;4445333;32;20105;-73
2022/03/16 07:12:59;;;;;;;6.13;4.63;;;18.10;56.60;;;;;;4444914;32;20211;-74
2022/03/16 07:15:26;;;;;;;5.38;4.47;;;18.10;56.60;;;;;;4431095;32;20078;-74
2022/03/16 07:17:51;;;;;;;7.10;4.75;;;18.10;56.60;;;;;;4444950;32;20419;-73
2022/03/16 07:20:17;;;;;;;8.48;4.65;;;18.10;56.60;;;;;;4444674;32;20075;-73
2022/03/16 07:22:43;;;;;;;5.53;4.47;;;18.00;56.60;;;;;;4444681;32;20078;-74
2022/03/16 07:25:10;;;;;;;8.88;5.35;;;18.00;56.60;;;;;;4431364;32;20125;-74
2022/03/16 07:27:39;;;;;;;5.80;4.75;;;18.00;56.50;;;;;;4444840;32;20092;-74
2022/03/16 07:30:06;;;;;;;8.15;6.00;;;18.00;56.60;;;;;;4444694;32;20093;-74
2022/03/16 07:32:35;;;;;;;7.65;5.65;;;18.00;56.60;;;;;;4444789;32;20442;-75
2022/03/16 07:35:01;;;;;;;9.00;5.90;;;17.90;56.50;;;;;;4445074;32;20175;-75
2022/03/16 07:37:27;;;;;;;9.38;7.00;;;17.90;56.40;;;;;;4444827;32;20479;-74
2022/03/16 07:39:53;;;;;;;9.85;6.75;;;17.90;56.20;;;;;;4445053;32;20580;-73
2022/03/16 07:42:19;;;;;;;10.50;7.07;;;17.90;56.20;;;;;;4444491;32;20156;-73
2022/03/16 07:44:45;;;;;;;12.13;6.68;;;17.90;56.10;;;;;;4444776;32;20084;-74
2022/03/16 07:47:11;;;;;;;10.90;6.45;;;17.90;56.10;;;;;;4444782;32;20086;-74
2022/03/16 07:49:37;;;;;;;7.32;6.00;;;17.90;56.20;;;;;;4446246;32;20081;-74
2022/03/16 07:52:03;;;;;;;9.30;5.70;;;18.00;56.20;;;;;;4447303;32;20102;-74
2022/03/16 07:54:29;;;;;;;9.65;6.20;;;18.00;56.10;;;;;;4447943;32;20077;-74
2022/03/16 07:56:56;;;;;;;7.07;5.40;;;18.00;56.00;;;;;;4447490;32;20391;-74
2022/03/16 07:59:22;;;;;;;6.95;5.03;;;18.10;56.00;;;;;;4433851;32;20096;-74
2022/03/16 08:01:48;;;;;;;7.20;5.03;;;18.10;55.90;;;;;;4447534;32;20074;-74
2022/03/16 08:04:15;;;;;;;7.43;5.22;;;18.20;55.90;;;;;;4433415;32;20089;-74
2022/03/16 08:06:41;;;;;;;6.60;5.20;;;18.30;55.70;;;;;;4447802;32;20090;-74
2022/03/16 08:09:07;;;;;;;7.50;3.95;;;18.40;55.60;;;;;;4447602;32;20112;-75
2022/03/16 08:11:33;;;;;;;6.22;4.20;;;18.40;55.30;;;;;;4447423;32;20074;-73
2022/03/16 08:13:59;;;;;;;8.57;4.30;;;18.60;55.10;;;;;;4446970;32;20546;-75
2022/03/16 08:16:25;;;;;;;6.57;3.97;;;18.70;54.80;;;;;;4447502;32;20054;-76
2022/03/16 08:18:51;;;;;;;6.38;3.63;;;18.80;54.50;;;;;;4447302;32;20066;-74
2022/03/16 08:21:16;;;;;;;4.65;3.28;;;18.90;54.30;;;;;;4447238;32;20074;-73
2022/03/16 08:23:43;;;;;;;4.97;3.72;;;19.10;54.10;;;;;;4447186;32;20522;-74
2022/03/16 08:26:08;;;;;;;4.43;3.20;;;19.20;53.90;;;;;;4447119;32;20086;-72
2022/03/16 08:28:35;;;;;;;5.63;3.53;;;19.40;53.70;;;;;;4446796;32;20139;-74
2022/03/16 08:31:01;;;;;;;4.43;3.10;;;19.50;53.50;;;;;;4420527;32;20067;-74
2022/03/16 08:33:27;;;;;;;4.18;3.00;;;19.60;53.20;;;;;;4433153;32;20206;-74
2022/03/16 08:35:53;;;;;;;4.95;3.00;;;19.70;53.00;;;;;;4447085;32;20227;-74
2022/03/16 08:38:19;;;;;;;4.97;2.97;;;19.80;52.70;;;;;;4432980;32;20430;-73
2022/03/16 08:40:46;;;;;;;4.60;3.20;;;19.90;52.50;;;;;;4420390;32;20121;-74
2022/03/16 08:43:12;;;;;;;4.80;2.80;;;20.00;52.30;;;;;;4446978;32;20089;-74
2022/03/16 08:45:39;;;;;;;5.00;2.70;;;20.10;52.10;;;;;;4446933;32;20078;-74
2022/03/16 08:48:05;;;;;;;5.70;3.00;;;20.20;51.90;;;;;;4447144;32;20090;-74
2022/03/16 08:50:31;;;;;;;3.13;2.45;;;20.30;51.60;;;;;;4420052;32;20113;-74
2022/03/16 08:52:57;;;;;;;2.95;2.40;;;20.50;51.30;;;;;;4446985;32;20285;-74
2022/03/16 08:55:24;;;;;;;4.55;2.75;;;20.60;51.10;;;;;;4446810;32;20113;-74
2022/03/16 08:57:50;;;;;;;3.10;2.10;;;20.70;50.80;;;;;;4446466;32;20541;-75
2022/03/16 09:00:18;;;;;;;3.67;2.30;;;20.90;50.60;;;;;;4446571;32;20521;-74
2022/03/16 09:02:44;;;;;;;3.38;2.50;;;21.00;50.40;;;;;;4446146;32;20074;-74
2022/03/16 09:05:12;;;;;;;3.38;2.17;;;21.10;50.20;;;;;;4446461;32;20165;-74
2022/03/16 09:07:38;;;;;;;5.72;3.80;;;21.10;50.00;;;;;;4446367;32;20543;-74
2022/03/16 09:10:06;;;;;;;9.32;6.25;;;21.20;49.80;;;;;;4446489;32;20415;-74
2022/03/16 09:12:32;;;;;;;12.98;6.70;;;21.20;49.30;;;;;;4446183;32;20519;-72
2022/03/16 09:14:58;;;;;;;8.25;5.93;;;21.10;48.80;;;;;;4446581;32;20081;-75
2022/03/16 09:17:24;;;;;;;9.68;5.85;;;21.10;48.70;;;;;;4446255;32;20085;-74
2022/03/16 09:19:50;;;;;;;8.02;5.20;;;21.10;48.90;;;;;;4446362;32;20066;-74
2022/03/16 09:22:16;;;;;;;10.57;4.90;;;21.10;49.10;;;;;;4432514;32;20082;-74
2022/03/16 09:24:43;;;;;;;5.78;3.83;;;21.00;49.40;;;;;;4432423;32;20074;-73
2022/03/16 09:27:09;;;;;;;7.32;4.20;;;20.90;49.60;;;;;;4446488;32;20595;-75
2022/03/16 09:29:36;;;;;;;8.32;3.88;;;20.90;50.00;;;;;;4432401;32;20074;-75
2022/03/16 09:32:02;;;;;;;5.22;3.72;;;20.80;50.10;;;;;;4446387;32;20090;-74
2022/03/16 09:34:28;;;;;;;11.75;3.75;;;20.80;50.50;;;;;;4446268;32;20373;-75
2022/03/16 09:36:56;;;;;;;8.27;3.40;;;20.70;50.70;;;;;;4446087;32;20085;-74
2022/03/16 09:39:22;;;;;;;5.47;3.15;;;20.60;50.90;;;;;;4445862;32;20062;-73
2022/03/16 09:41:48;;;;;;;8.15;3.33;;;20.60;51.20;;;;;;4432390;32;20076;-74
2022/03/16 09:44:15;;;;;;;6.35;2.85;;;20.50;51.40;;;;;;4446211;32;20094;-74
2022/03/16 09:46:44;;;;;;;5.75;2.63;;;20.40;51.70;;;;;;4446195;32;20252;-74
2022/03/16 09:49:14;;;;;;;11.73;2.88;;;20.30;51.80;;;;;;4445951;32;20090;-74
2022/03/16 09:51:41;;;;;;;7.38;2.38;;;20.30;52.10;;;;;;4446255;32;20101;-75
2022/03/16 09:54:07;;;;;;;4.57;2.63;;;20.20;52.30;;;;;;4445824;32;20148;-75
2022/03/16 09:56:33;;;;;;;4.55;2.28;;;20.10;52.50;;;;;;4445457;32;20179;-75
2022/03/16 09:59:02;;;;;;;5.97;2.55;;;20.10;52.70;;;;;;4445765;32;20109;-74
2022/03/16 10:01:28;;;;;;;4.55;2.53;;;20.00;52.90;;;;;;4446086;32;20082;-75
2022/03/16 10:04:06;;;;;;;4.63;2.33;;;19.90;53.00;;;;;;4445829;32;20136;-75
2022/03/16 10:06:38;;;;;;;6.00;2.90;;;19.90;53.20;;;;;;4445919;32;20642;-75
2022/03/16 10:15:18;;;;;;;10.00;5.30;;;19.80;53.70;;;;;;4445883;32;20393;-70
2022/03/16 10:17:49;;;;;;;10.48;5.28;;;19.70;53.70;;;;;;4432208;32;20078;-72
2022/03/16 10:20:26;;;;;;;10.52;6.25;;;19.60;53.70;;;;;;4445935;32;20188;-72
2022/03/16 10:22:57;;;;;;;20.45;11.55;;;19.60;53.70;;;;;;4445609;32;20066;-71
2022/03/16 10:25:23;;;;;;;16.13;11.88;;;19.50;52.90;;;;;;4445609;32;20093;-70
2022/03/16 10:27:49;;;;;;;22.80;13.45;;;19.40;52.40;;;;;;4445549;32;20085;-71
2022/03/16 10:30:16;;;;;;;20.38;14.13;;;19.40;51.90;;;;;;4445595;32;20395;-71
2022/03/16 10:32:54;;;;;;;23.33;15.55;;;19.40;51.70;;;;;;4445716;32;20074;-71
2022/03/16 10:35:20;;;;;;;18.40;13.55;;;19.30;50.80;;;;;;4431417;32;20459;-71
2022/03/16 10:37:49;;;;;;;22.98;13.27;;;19.20;51.40;;;;;;4431451;32;20491;-71
2022/03/16 10:40:19;;;;;;;19.35;13.40;;;19.20;51.40;;;;;;4445066;32;20078;-71
2022/03/16 10:48:21;;;;;;;17.80;11.88;;;19.20;51.60;;;;;;4445561;32;20184;-71
2022/03/16 10:50:48;;;;;;;18.05;11.63;;;19.10;51.80;;;;;;4445647;32;20097;-71
2022/03/16 10:53:17;;;;;;;16.40;11.55;;;19.20;51.90;;;;;;4431131;32;20093;-72
2022/03/16 10:55:44;;;;;;;16.05;11.02;;;19.10;52.00;;;;;;4445297;32;20219;-72
2022/03/16 10:58:12;;;;;;;16.42;10.48;;;19.10;52.10;;;;;;4445142;32;20089;-72
2022/03/16 11:00:39;;;;;;;16.15;10.38;;;19.10;52.20;;;;;;4444926;32;20592;-72
2022/03/16 11:03:07;;;;;;;15.90;10.20;;;19.10;52.40;;;;;;4431405;32;20079;-72
2022/03/16 11:05:37;;;;;;;12.60;9.30;;;19.10;52.50;;;;;;4444897;32;20105;-71
2022/03/16 11:08:09;;;;;;;12.38;9.10;;;19.10;52.60;;;;;;4445058;32;20487;-71
2022/03/16 11:10:39;;;;;;;11.63;8.50;;;19.10;52.80;;;;;;4444805;32;20093;-72
2022/03/16 11:15:52;;;;;;;11.27;8.23;;;19.00;53.00;;;;;;4433340;32;20118;-72
2022/03/16 11:18:19;;;;;;;11.27;7.88;;;19.00;53.10;;;;;;4445173;32;20066;-71
2022/03/16 11:20:50;;;;;;;10.80;7.90;;;19.00;53.20;;;;;;4445085;32;20164;-71
2022/03/16 11:26:42;;;;;;;9.07;6.30;;;19.00;53.50;;;;;;4448393;32;20212;-71
2022/03/16 11:29:25;;;;;;;11.10;6.55;;;19.00;53.60;;;;;;4447835;32;20080;-71
2022/03/16 11:32:11;;;;;;;8.52;5.82;;;19.00;53.90;;;;;;4434558;32;20119;-71
2022/03/16 11:34:37;;;;;;;12.15;6.18;;;19.00;54.00;;;;;;4448135;32;20078;-71
2022/03/16 11:37:07;;;;;;;9.77;5.60;;;18.90;54.00;;;;;;4433895;32;20093;-71
2022/03/16 11:39:47;;;;;;;8.52;5.13;;;19.00;54.20;;;;;;4448221;32;20415;-71
2022/03/16 11:42:17;;;;;;;9.10;5.38;;;19.00;54.30;;;;;;4447881;32;20066;-72
2022/03/16 11:44:43;;;;;;;9.82;5.30;;;19.00;54.50;;;;;;4447609;32;20133;-72
2022/03/16 11:47:09;;;;;;;8.60;4.53;;;19.00;54.50;;;;;;4447787;32;20082;-72
2022/03/16 11:49:45;;;;;;;9.45;4.40;;;18.90;54.40;;;;;;4447679;32;20401;-72
2022/03/16 11:52:12;;;;;;;7.28;4.55;;;18.90;54.40;;;;;;4448040;32;20070;-71
2022/03/16 11:54:45;;;;;;;9.07;4.65;;;18.90;54.40;;;;;;4447722;32;20170;-73
2022/03/16 11:57:12;;;;;;;10.18;4.88;;;19.00;54.60;;;;;;4447739;32;20231;-72
2022/03/16 11:59:44;;;;;;;14.45;4.20;;;18.90;54.60;;;;;;4447671;32;20539;-72
2022/03/16 12:02:24;;;;;;;5.55;3.70;;;19.00;54.80;;;;;;4447884;32;20408;-72
2022/03/16 12:04:58;;;;;;;5.38;3.58;;;18.90;54.70;;;;;;4447633;32;20089;-72
2022/03/16 12:07:26;;;;;;;7.90;4.07;;;18.90;54.60;;;;;;4433531;32;20183;-71
2022/03/16 12:09:52;;;;;;;6.20;3.60;;;18.90;54.70;;;;;;4447769;32;20101;-70
2022/03/16 12:15:14;;;;;;;10.27;4.15;;;18.90;54.70;;;;;;4447798;32;20196;-73
2022/03/16 12:18:01;;;;;;;5.72;3.50;;;18.90;54.80;;;;;;4447580;32;20395;-73
2022/03/16 12:20:30;;;;;;;8.07;3.50;;;18.90;54.70;;;;;;4447479;32;20089;-73
2022/03/16 12:22:59;;;;;;;8.60;3.28;;;18.90;54.80;;;;;;4447322;32;20512;-72
2022/03/16 12:25:26;;;;;;;8.68;2.95;;;18.90;54.90;;;;;;4446915;32;20216;-69
2022/03/16 12:31:00;;;;;;;;;;;18.90;54.90;;;;;;4447756;32;20062;-74
2022/03/16 12:33:42;;;;;;;9.30;3.75;;;18.80;54.50;;;;;;4447402;32;20101;-74
2022/03/16 12:36:11;;;;;;;6.80;3.35;;;18.80;54.60;;;;;;4446081;32;20073;-74
2022/03/16 12:38:47;;;;;;;8.82;3.60;;;18.80;54.40;;;;;;4447268;32;20078;-74
2022/03/16 12:44:01;;;;;;;5.65;3.42;;;18.80;54.40;;;;;;4447055;32;20074;-73
2022/03/16 12:46:36;;;;;;;5.55;3.53;;;18.80;54.40;;;;;;4446965;32;20078;-73
2022/03/16 12:49:06;;;;;;;6.50;3.80;;;18.80;54.30;;;;;;4446848;32;20223;-74
2022/03/16 12:51:34;;;;;;;5.80;3.60;;;18.70;54.20;;;;;;4446911;32;20175;-73
2022/03/16 12:54:00;;;;;;;6.55;3.53;;;18.80;54.10;;;;;;4446591;32;20163;-73
2022/03/16 12:56:26;;;;;;;6.25;3.72;;;18.80;54.00;;;;;;4446868;32;20062;-71
2022/03/16 12:58:55;;;;;;;6.43;3.58;;;18.80;53.80;;;;;;4446771;32;20126;-73
2022/03/16 13:01:22;;;;;;;7.88;3.63;;;18.70;53.70;;;;;;4446706;32;20114;-74
2022/03/16 13:04:04;;;;;;;5.72;3.03;;;18.70;53.70;;;;;;4446777;32;20495;-74
2022/03/16 13:06:33;;;;;;;4.72;3.25;;;18.80;53.70;;;;;;4446664;32;20090;-73